Natashquan, Canada
Current Conditions -  °F | °C
As of 12:34 PM on Monday 29 Dec 2014 (Local Time) from CYNA Reporting Station
Light Snow Light Snow  
Wind Chill:   Ceiling: 1900
Heat Index: 21°   Visibility: 5mi
Dew Point: 16°   Wind: 21mph
Humidity: 80%   Direction: 280°W
Pressure: 29.54"   Gusts: 28mph
Location:  50.13°N, 61.8°W
Report Text: CYNA 291634Z AUTO 28018G24KT 5SM -SN FEW014 BKN019 BKN029 OVC060 M06/M09 A2954 RMK ICG PAST HR SLP004
Loading
Personal Weather Stations






























Interactive Weather Map New forecast layout! Learn more

10-Day Weather Forecast

Advertisements
Track Severe Weather on mobile